createdAt,value
2016-10-03T00:00:24.687Z,87.1
2016-10-03T00:01:06.416Z,87.29
2016-10-03T00:01:48.156Z,87.39
2016-10-03T00:02:29.928Z,87.29
2016-10-03T00:03:11.680Z,87.39
2016-10-03T00:03:53.348Z,86.82
2016-10-03T00:04:35.116Z,86.82
2016-10-03T00:05:16.852Z,86.82
2016-10-03T00:05:58.615Z,86.63
2016-10-03T00:06:40.376Z,86.82
2016-10-03T00:07:22.125Z,87.1
2016-10-03T00:08:03.853Z,86.91
2016-10-03T00:08:45.511Z,87.39
2016-10-03T00:09:27.277Z,87.2
2016-10-03T00:10:09.034Z,87.58
2016-10-03T00:10:50.791Z,87.39
2016-10-03T00:11:32.628Z,87.58
2016-10-03T00:12:14.362Z,87.48
2016-10-03T00:12:56.111Z,87.58
2016-10-03T00:13:37.770Z,88.06
2016-10-03T00:14:19.512Z,88.15
2016-10-03T00:15:01.254Z,87.96
2016-10-03T00:15:42.987Z,88.15
2016-10-03T00:16:24.759Z,87.96
2016-10-03T00:17:06.491Z,88.06
2016-10-03T00:17:48.223Z,87.96
2016-10-03T00:18:29.994Z,87.96
2016-10-03T00:19:11.709Z,87.96
2016-10-03T00:19:53.487Z,88.54
2016-10-03T00:20:35.213Z,88.44
2016-10-03T00:21:16.783Z,88.34
2016-10-03T00:21:58.546Z,88.63
2016-10-03T00:22:40.257Z,88.44
2016-10-03T00:23:22.015Z,88.34
2016-10-03T00:24:03.793Z,88.63
2016-10-03T00:24:45.515Z,88.34
2016-10-03T00:25:27.258Z,88.25
2016-10-03T00:26:09.009Z,88.15
2016-10-03T00:26:50.535Z,88.63
2016-10-03T00:27:32.182Z,88.54
2016-10-03T00:28:13.749Z,88.34
2016-10-03T00:28:55.507Z,88.34
2016-10-03T00:29:37.302Z,88.06
2016-10-03T00:30:19.055Z,88.63
2016-10-03T00:31:00.730Z,88.44
2016-10-03T00:31:42.529Z,88.34
2016-10-03T00:32:24.108Z,88.34
2016-10-03T00:33:05.867Z,88.82
2016-10-03T00:33:47.723Z,88.78
2016-10-03T00:34:29.452Z,88.92
2016-10-03T00:35:11.273Z,88.73
2016-10-03T00:35:52.996Z,89.01
2016-10-03T00:36:34.638Z,88.82
2016-10-03T00:37:16.358Z,88.78
2016-10-03T00:37:58.155Z,89.35
2016-10-03T00:38:39.967Z,89.39
2016-10-03T00:39:21.495Z,89.2
2016-10-03T00:40:03.021Z,89.2
2016-10-03T00:40:44.522Z,89.2
2016-10-03T00:41:25.953Z,89.06
2016-10-03T00:42:07.465Z,89.16
2016-10-03T00:42:49.146Z,89.2
2016-10-03T00:43:30.878Z,89.64
2016-10-03T00:44:12.545Z,88.82
2016-10-03T00:44:54.308Z,88.92
2016-10-03T00:45:36.004Z,88.92
2016-10-03T00:46:17.745Z,89.2
2016-10-03T00:46:59.449Z,88.92
2016-10-03T00:47:41.131Z,89.45
2016-10-03T00:48:22.871Z,89.3
2016-10-03T00:49:04.607Z,89.64
2016-10-03T00:49:46.431Z,89.87
2016-10-03T00:50:28.156Z,89.97
2016-10-03T00:51:09.924Z,89.87
2016-10-03T00:51:51.668Z,89.73
2016-10-03T00:52:33.464Z,90.02
2016-10-03T00:53:15.149Z,89.92
2016-10-03T00:53:56.956Z,90.02
2016-10-03T00:54:38.584Z,90.5
2016-10-03T00:55:20.322Z,89.83
2016-10-03T00:56:01.765Z,90.4
2016-10-03T00:56:42.302Z,90.31
2016-10-03T00:57:22.823Z,89.92
2016-10-03T00:58:03.320Z,90.54
2016-10-03T00:58:43.855Z,90.31
2016-10-03T00:59:24.427Z,89.73
2016-10-03T01:00:04.942Z,90.69
2016-10-03T01:00:45.445Z,90.31
2016-10-03T01:01:25.977Z,90.59
2016-10-03T01:02:06.529Z,90.97
2016-10-03T01:02:47.070Z,90.88
2016-10-03T01:03:27.603Z,90.97
2016-10-03T01:04:08.114Z,90.88
2016-10-03T01:04:48.639Z,90.69
2016-10-03T01:05:29.173Z,90.5
2016-10-03T01:06:09.731Z,90.69
2016-10-03T01:08:29.026Z,90.78
2016-10-03T01:09:09.522Z,90.69
2016-10-03T01:09:50.032Z,90.78
2016-10-03T01:10:30.549Z,90.5
2016-10-03T01:11:11.080Z,90.59
2016-10-03T01:11:51.563Z,90.69
2016-10-03T01:12:32.104Z,91.16
2016-10-03T01:13:12.642Z,91.3
2016-10-03T01:13:53.161Z,90.59
2016-10-03T01:14:33.753Z,90.78
2016-10-03T01:15:14.252Z,90.88
2016-10-03T01:15:54.717Z,90.59
2016-10-03T01:16:35.223Z,90.78
2016-10-03T01:17:15.774Z,90.5
2016-10-03T01:17:56.355Z,89.73
2016-10-03T01:18:36.896Z,90.4
2016-10-03T01:19:17.432Z,90.06
2016-10-03T01:19:57.948Z,89.97
2016-10-03T01:20:38.468Z,90.35
2016-10-03T01:21:19.033Z,89.92
2016-10-03T01:21:59.632Z,89.92
2016-10-03T01:22:40.162Z,89.87
2016-10-03T01:23:20.618Z,89.68
2016-10-03T01:24:01.155Z,90.64
2016-10-03T01:24:41.811Z,89.83
2016-10-03T01:25:22.338Z,90.64
2016-10-03T01:26:02.887Z,89.87
2016-10-03T01:26:43.454Z,89.83
2016-10-03T01:27:23.961Z,90.59
2016-10-03T01:28:04.524Z,90.54
2016-10-03T01:28:45.028Z,90.5
2016-10-03T01:29:25.512Z,90.88
2016-10-03T01:30:06.105Z,90.78
2016-10-03T01:30:46.617Z,90.78
2016-10-03T01:31:27.108Z,90.78
2016-10-03T01:32:07.624Z,90.59
2016-10-03T01:32:48.172Z,90.92
2016-10-03T01:33:28.679Z,90.88
2016-10-03T01:34:09.205Z,90.88
2016-10-03T01:34:50.245Z,90.78
2016-10-03T01:35:30.746Z,90.64
2016-10-03T01:36:11.235Z,90.59
2016-10-03T01:36:51.822Z,90.83
2016-10-03T01:37:32.280Z,90.69
2016-10-03T01:38:12.786Z,90.69
2016-10-03T01:38:53.346Z,90.4
2016-10-03T01:39:33.922Z,90.59
2016-10-03T01:40:14.475Z,90.4
2016-10-03T01:40:55.035Z,90.69
2016-10-03T01:41:35.555Z,91.02
2016-10-03T01:42:16.122Z,90.92
2016-10-03T01:42:56.691Z,90.59
2016-10-03T01:43:37.288Z,91.07
2016-10-03T01:44:17.832Z,91.36
2016-10-03T01:44:58.404Z,91.07
2016-10-03T01:45:38.951Z,91.07
2016-10-03T01:46:19.528Z,91.26
2016-10-03T01:47:00.043Z,90.88
2016-10-03T01:47:40.608Z,91.36
2016-10-03T01:48:21.080Z,90.92
2016-10-03T01:49:01.610Z,91.26
2016-10-03T01:49:42.109Z,91.36
2016-10-03T01:50:22.652Z,91.16
2016-10-03T01:52:21.809Z,91.07
2016-10-03T01:53:02.281Z,91.16
2016-10-03T01:53:42.799Z,91.26
2016-10-03T01:54:23.306Z,90.88
2016-10-03T01:55:03.858Z,90.88
2016-10-03T01:55:44.390Z,91.55
2016-10-03T01:56:24.930Z,91.36
2016-10-03T01:57:05.469Z,91.45
2016-10-03T01:57:45.999Z,91.45
2016-10-03T01:58:26.500Z,91.36
2016-10-03T01:59:07.037Z,91.55
2016-10-03T01:59:47.518Z,91.45
2016-10-03T02:00:28.064Z,91.36
2016-10-03T02:01:08.589Z,91.36
2016-10-03T02:01:49.072Z,91.26
2016-10-03T02:02:29.633Z,91.45
2016-10-03T02:03:10.144Z,91.55
2016-10-03T02:03:50.689Z,91.26
2016-10-03T02:04:31.172Z,91.07
2016-10-03T02:05:11.807Z,91.26
2016-10-03T02:05:52.331Z,91.26
2016-10-03T02:06:32.898Z,91.26
2016-10-03T02:07:13.429Z,91.16
2016-10-03T02:07:53.987Z,91.16
2016-10-03T02:08:34.493Z,91.26
2016-10-03T02:09:15.086Z,91.16
2016-10-03T02:09:55.659Z,91.07
2016-10-03T02:10:36.199Z,91.16
2016-10-03T02:11:16.773Z,91.07
2016-10-03T02:11:57.297Z,91.5
2016-10-03T02:12:37.852Z,91.07
2016-10-03T02:13:18.399Z,91.16
2016-10-03T02:13:58.953Z,91.64
2016-10-03T02:14:39.479Z,91.74
2016-10-03T02:15:20.059Z,91.93
2016-10-03T02:16:00.597Z,91.74
2016-10-03T02:16:41.133Z,91.74
2016-10-03T02:17:21.609Z,91.74
2016-10-03T02:18:02.189Z,91.64
2016-10-03T02:18:42.718Z,92.12
2016-10-03T02:19:23.240Z,92.41
2016-10-03T02:20:03.752Z,92.31
2016-10-03T02:20:44.342Z,91.93
2016-10-03T02:21:24.878Z,92.12
2016-10-03T02:22:05.441Z,92.02
2016-10-03T02:22:45.935Z,92.02
2016-10-03T02:23:26.454Z,92.02
2016-10-03T02:24:07.018Z,92.21
2016-10-03T02:24:47.542Z,92.12
2016-10-03T02:25:28.066Z,92.02
2016-10-03T02:26:08.584Z,92.12
2016-10-03T02:26:49.128Z,92.12
2016-10-03T02:27:31.597Z,92.12
2016-10-03T02:28:12.158Z,91.74
2016-10-03T02:28:52.639Z,92.12
2016-10-03T02:29:33.181Z,92.12
2016-10-03T02:30:13.735Z,92.12
2016-10-03T02:30:54.306Z,92.02
2016-10-03T02:31:34.806Z,92.21
2016-10-03T02:32:15.332Z,92.21
2016-10-03T02:32:55.863Z,92.12
2016-10-03T02:33:36.381Z,91.64
2016-10-03T02:34:17.027Z,91.64
2016-10-03T02:34:57.508Z,92.12
2016-10-03T02:35:38.012Z,92.12
2016-10-03T02:36:18.519Z,92.12
2016-10-03T02:36:59.044Z,92.31
2016-10-03T02:37:39.560Z,92.12
2016-10-03T02:38:20.085Z,91.64
2016-10-03T02:39:00.627Z,91.55
2016-10-03T02:39:41.102Z,92.12
2016-10-03T02:40:21.642Z,92.12
2016-10-03T02:41:02.242Z,91.36
2016-10-03T02:41:42.780Z,92.12
2016-10-03T02:42:23.308Z,91.83
2016-10-03T02:43:03.855Z,91.07
2016-10-03T02:43:44.359Z,92.02
2016-10-03T02:44:24.880Z,91.64
2016-10-03T02:45:05.416Z,91.93
2016-10-03T02:45:46.005Z,92.02
2016-10-03T02:46:26.566Z,91.93
2016-10-03T02:47:07.109Z,91.93
2016-10-03T02:47:47.631Z,92.02
2016-10-03T02:48:28.178Z,91.74
2016-10-03T02:49:08.699Z,91.45
2016-10-03T02:49:49.301Z,91.74
2016-10-03T02:50:29.767Z,91.55
2016-10-03T02:51:10.318Z,92.12
2016-10-03T02:51:50.825Z,92.02
2016-10-03T02:52:31.364Z,92.12
2016-10-03T02:53:11.912Z,91.83
2016-10-03T02:53:52.454Z,91.64
2016-10-03T02:54:32.963Z,91.55
2016-10-03T02:55:13.466Z,91.74
2016-10-03T02:55:53.999Z,91.64
2016-10-03T02:56:34.572Z,91.64
2016-10-03T02:57:15.103Z,91.74
2016-10-03T02:57:55.625Z,91.64
2016-10-03T02:58:36.225Z,91.55
2016-10-03T02:59:16.710Z,91.55
2016-10-03T02:59:57.325Z,91.55
2016-10-03T03:00:37.859Z,91.83
2016-10-03T03:01:18.355Z,91.74
2016-10-03T03:01:58.863Z,91.55
2016-10-03T03:02:39.410Z,91.83
2016-10-03T03:03:19.945Z,91.64
2016-10-03T03:04:00.454Z,91.64
2016-10-03T03:04:41.013Z,91.55
2016-10-03T03:05:21.517Z,92.02
2016-10-03T03:06:02.070Z,92.02
2016-10-03T03:06:42.615Z,92.02
2016-10-03T03:07:23.158Z,91.74
2016-10-03T03:08:03.703Z,91.74
2016-10-03T03:08:44.196Z,91.83
2016-10-03T03:09:24.750Z,91.55
2016-10-03T03:10:05.270Z,91.55
2016-10-03T03:10:45.816Z,91.74
2016-10-03T03:11:26.361Z,91.83
2016-10-03T03:12:06.865Z,92.02
2016-10-03T03:12:47.403Z,91.83
2016-10-03T03:13:27.950Z,91.26
2016-10-03T03:14:08.502Z,91.93
2016-10-03T03:14:49.051Z,92.12
2016-10-03T03:15:29.602Z,91.93
2016-10-03T03:16:10.125Z,91.93
2016-10-03T03:16:50.658Z,91.26
2016-10-03T03:17:31.171Z,92.12
2016-10-03T03:18:11.749Z,91.07
2016-10-03T03:18:52.223Z,91.36
2016-10-03T03:19:32.795Z,91.55
2016-10-03T03:20:13.316Z,91.55
2016-10-03T03:20:53.882Z,91.55
2016-10-03T03:21:34.406Z,91.64
2016-10-03T03:22:14.956Z,91.55
2016-10-03T03:22:55.486Z,91.07
2016-10-03T03:23:35.986Z,91.26
2016-10-03T03:24:16.492Z,91.55
2016-10-03T03:24:57.004Z,91.45
2016-10-03T03:25:37.513Z,91.26
2016-10-03T03:26:18.058Z,91.45
2016-10-03T03:26:58.570Z,91.36
2016-10-03T03:27:39.101Z,91.55
2016-10-03T03:28:19.619Z,91.55
2016-10-03T03:29:00.150Z,91.45
2016-10-03T03:29:40.658Z,91.55
2016-10-03T03:30:21.223Z,91.64
2016-10-03T03:31:01.761Z,91.26
2016-10-03T03:31:42.269Z,91.07
2016-10-03T03:32:22.764Z,91.16
2016-10-03T03:33:03.270Z,91.16
2016-10-03T03:33:43.814Z,90.88
2016-10-03T03:34:24.307Z,91.55
2016-10-03T03:35:04.856Z,91.16
2016-10-03T03:35:45.444Z,91.64
2016-10-03T03:36:26.027Z,91.36
2016-10-03T03:37:06.613Z,91.36
2016-10-03T03:37:47.176Z,91.36
2016-10-03T03:38:27.690Z,91.55
2016-10-03T03:39:08.235Z,91.26
2016-10-03T03:39:48.756Z,91.16
2016-10-03T03:40:29.377Z,91.55
2016-10-03T03:41:09.891Z,91.55
2016-10-03T03:41:50.448Z,91.55
2016-10-03T03:42:30.901Z,91.45
2016-10-03T03:43:11.450Z,91.16
2016-10-03T03:43:51.961Z,91.26
2016-10-03T03:44:32.535Z,91.16
2016-10-03T03:45:13.010Z,91.26
2016-10-03T03:45:53.508Z,91.36
2016-10-03T03:46:34.014Z,91.16
2016-10-03T03:47:14.556Z,91.07
2016-10-03T03:47:55.037Z,91.36
2016-10-03T03:48:35.645Z,91.45
2016-10-03T03:49:16.192Z,91.45
2016-10-03T03:49:56.703Z,91.45
2016-10-03T03:50:37.208Z,91.16
2016-10-03T03:51:17.766Z,90.88
2016-10-03T03:51:58.229Z,91.55
2016-10-03T03:52:38.765Z,91.16
2016-10-03T03:53:19.285Z,91.26
2016-10-03T03:53:59.784Z,91.64
2016-10-03T03:54:40.356Z,91.45
2016-10-03T03:55:20.834Z,91.55
2016-10-03T03:56:01.400Z,91.55
2016-10-03T03:56:41.913Z,91.64
2016-10-03T03:57:22.426Z,91.55
2016-10-03T03:58:02.973Z,92.02
2016-10-03T03:58:43.444Z,91.64
2016-10-03T03:59:24.029Z,91.74
2016-10-03T04:00:04.531Z,91.83
2016-10-03T04:00:45.077Z,92.31
2016-10-03T04:01:25.555Z,92.12
2016-10-03T04:02:06.083Z,91.93
2016-10-03T04:02:46.606Z,92.31
2016-10-03T04:03:27.136Z,92.6
2016-10-03T04:04:07.703Z,92.69
2016-10-03T04:04:48.257Z,92.41
2016-10-03T04:05:28.799Z,92.41
2016-10-03T04:06:09.327Z,92.5
2016-10-03T04:06:49.867Z,92.12
2016-10-03T04:07:30.444Z,92.31
2016-10-03T04:08:10.967Z,92.31
2016-10-03T04:08:51.448Z,92.12
2016-10-03T04:09:32.020Z,92.12
2016-10-03T04:10:12.497Z,92.12
2016-10-03T04:10:53.044Z,92.41
2016-10-03T04:11:33.543Z,92.41
2016-10-03T04:12:14.106Z,92.21
2016-10-03T04:12:54.594Z,92.31
2016-10-03T04:13:35.104Z,92.31
2016-10-03T04:14:15.858Z,92.6
2016-10-03T04:14:56.189Z,92.12
2016-10-03T04:15:36.684Z,92.31
2016-10-03T04:16:17.218Z,92.12
2016-10-03T04:16:57.743Z,92.31
2016-10-03T04:17:38.365Z,92.31
2016-10-03T04:18:18.884Z,92.41
2016-10-03T04:18:59.408Z,92.6
2016-10-03T04:19:39.965Z,92.5
2016-10-03T04:20:20.495Z,92.6
2016-10-03T04:21:01.082Z,92.31
2016-10-03T04:21:41.598Z,92.41
2016-10-03T04:22:22.102Z,92.41
2016-10-03T04:23:02.680Z,92.31
2016-10-03T04:23:43.233Z,92.5
2016-10-03T04:24:23.776Z,92.41
2016-10-03T04:25:04.238Z,92.41
2016-10-03T04:25:44.772Z,92.31
2016-10-03T04:26:25.288Z,92.97
2016-10-03T04:27:05.839Z,92.79
2016-10-03T04:27:46.334Z,92.79
2016-10-03T04:28:26.874Z,92.6
2016-10-03T04:29:07.393Z,92.6
2016-10-03T04:29:47.897Z,92.69
2016-10-03T04:30:28.443Z,92.79
2016-10-03T04:31:08.930Z,92.79
2016-10-03T04:31:49.495Z,92.31
2016-10-03T04:32:29.959Z,91.93
2016-10-03T04:33:10.481Z,92.12
2016-10-03T04:33:51.018Z,92.6
2016-10-03T04:34:31.536Z,92.6
2016-10-03T04:35:12.062Z,92.21
2016-10-03T04:35:52.597Z,92.12
2016-10-03T04:36:33.118Z,92.12
2016-10-03T04:37:13.654Z,92.5
2016-10-03T04:37:54.125Z,92.12
2016-10-03T04:38:34.648Z,91.74
2016-10-03T04:39:15.156Z,92.31
2016-10-03T04:39:55.671Z,92.69
2016-10-03T04:40:36.194Z,92.6
2016-10-03T04:41:16.724Z,92.69
2016-10-03T04:41:57.252Z,92.79
2016-10-03T04:42:37.779Z,92.88
2016-10-03T04:43:18.302Z,92.88
2016-10-03T04:43:58.847Z,92.6
2016-10-03T04:44:39.325Z,92.69
2016-10-03T04:45:19.899Z,92.79
2016-10-03T04:46:00.429Z,92.69
2016-10-03T04:46:40.952Z,92.79
2016-10-03T04:47:21.465Z,92.69
2016-10-03T04:48:01.983Z,92.69
2016-10-03T04:48:42.504Z,92.88
2016-10-03T04:49:23.043Z,92.69
2016-10-03T04:50:03.634Z,92.69
2016-10-03T04:50:44.154Z,91.83
2016-10-03T04:51:24.634Z,92.12
2016-10-03T04:52:05.156Z,92.5
2016-10-03T04:52:45.629Z,92.69
2016-10-03T04:53:26.145Z,92.41
2016-10-03T04:54:06.677Z,92.5
2016-10-03T04:54:47.266Z,92.6
2016-10-03T04:55:27.785Z,92.5
2016-10-03T04:56:08.281Z,92.5
2016-10-03T04:56:48.754Z,92.31
2016-10-03T04:57:29.373Z,92.02
2016-10-03T04:58:09.858Z,92.21
2016-10-03T04:58:50.360Z,91.74
2016-10-03T04:59:30.961Z,91.74
2016-10-03T05:00:11.431Z,91.93
2016-10-03T05:00:51.957Z,91.64
2016-10-03T05:01:32.504Z,92.12
2016-10-03T05:02:13.034Z,91.64
2016-10-03T05:02:53.566Z,91.74
2016-10-03T05:03:34.103Z,92.31
2016-10-03T05:04:14.627Z,91.64
2016-10-03T05:04:55.147Z,91.64
2016-10-03T05:05:35.646Z,91.74
2016-10-03T05:06:16.152Z,91.55
2016-10-03T05:06:56.652Z,91.74
2016-10-03T05:07:37.157Z,91.64
2016-10-03T05:08:17.701Z,91.64
2016-10-03T05:08:58.198Z,91.64
2016-10-03T05:09:38.734Z,91.55
2016-10-03T05:10:19.245Z,91.55
2016-10-03T05:10:59.756Z,91.83
2016-10-03T05:11:40.272Z,91.83
2016-10-03T05:12:20.796Z,91.93
2016-10-03T05:13:01.322Z,91.55
2016-10-03T05:13:41.819Z,92.02
2016-10-03T05:14:22.313Z,91.55
2016-10-03T05:15:02.827Z,91.74
2016-10-03T05:15:43.373Z,92.12
2016-10-03T05:16:23.868Z,92.31
2016-10-03T05:17:04.389Z,92.02
2016-10-03T05:17:45.515Z,92.12
2016-10-03T05:18:26.141Z,91.93
2016-10-03T05:19:06.660Z,92.12
2016-10-03T05:19:47.275Z,92.02
2016-10-03T05:20:27.814Z,92.21
2016-10-03T05:21:08.332Z,92.12
2016-10-03T05:21:49.144Z,92.79
2016-10-03T05:23:10.943Z,92.69
2016-10-03T05:23:51.777Z,92.12
2016-10-03T05:24:32.444Z,92.79
2016-10-03T05:25:13.105Z,92.41
2016-10-03T05:25:54.194Z,92.97
2016-10-03T05:26:34.808Z,93.17
2016-10-03T05:27:15.332Z,92.79
2016-10-03T05:27:55.836Z,93.74
2016-10-03T05:28:36.375Z,93.46
2016-10-03T05:29:16.891Z,92.79
2016-10-03T05:29:57.382Z,92.79
2016-10-03T05:30:37.889Z,92.6
2016-10-03T05:31:18.412Z,93.46
2016-10-03T05:31:58.915Z,93.36
2016-10-03T05:32:39.437Z,93.55
2016-10-03T05:33:19.947Z,93.65
2016-10-03T05:34:00.463Z,93.84
2016-10-03T05:34:40.969Z,93.65
2016-10-03T05:35:21.456Z,93.46
2016-10-03T05:36:01.997Z,93.79
2016-10-03T05:36:42.510Z,94.12
2016-10-03T05:37:22.994Z,94.07
2016-10-03T05:38:03.527Z,94.36
2016-10-03T05:38:43.979Z,94.17
2016-10-03T05:39:24.499Z,93.88
2016-10-03T05:40:05.045Z,94.74
2016-10-03T05:40:45.552Z,94.84
2016-10-03T05:41:26.012Z,94.65
2016-10-03T05:42:06.558Z,94.84
2016-10-03T05:42:47.050Z,95.41
2016-10-03T05:43:27.559Z,95.12
2016-10-03T05:44:08.081Z,94.93
2016-10-03T05:44:48.586Z,95.79
2016-10-03T05:45:29.075Z,95.51
2016-10-03T05:46:09.583Z,95.51
2016-10-03T05:46:50.101Z,95.61
2016-10-03T05:47:30.619Z,95.41
2016-10-03T05:48:11.084Z,95.61
2016-10-03T05:48:51.583Z,95.41
2016-10-03T05:49:32.115Z,95.61
2016-10-03T05:50:12.633Z,95.61
2016-10-03T05:50:53.185Z,95.61
2016-10-03T05:51:33.709Z,95.61
2016-10-03T05:52:14.244Z,95.32
2016-10-03T05:52:54.766Z,95.79
2016-10-03T05:53:35.262Z,95.7
2016-10-03T05:54:15.793Z,95.41
2016-10-03T05:54:56.319Z,95.7
2016-10-03T05:55:36.835Z,95.89
2016-10-03T05:56:17.365Z,95.89
2016-10-03T05:56:57.901Z,95.61
2016-10-03T05:57:38.414Z,95.51
2016-10-03T05:58:18.930Z,95.41
2016-10-03T05:58:59.437Z,95.41
2016-10-03T05:59:39.947Z,95.32
2016-10-03T06:00:20.435Z,95.32
2016-10-03T06:01:00.945Z,95.79
2016-10-03T06:01:41.460Z,95.41
2016-10-03T06:02:21.992Z,95.79
2016-10-03T06:03:02.528Z,95.41
2016-10-03T06:03:43.022Z,95.41
2016-10-03T06:04:23.527Z,95.7
2016-10-03T06:05:04.072Z,95.51
2016-10-03T06:05:44.594Z,95.32
2016-10-03T06:06:25.111Z,95.32
2016-10-03T06:07:05.616Z,95.22
2016-10-03T06:09:24.982Z,95.41
2016-10-03T06:10:05.523Z,95.7
2016-10-03T06:10:46.066Z,95.79
2016-10-03T06:11:26.582Z,95.41
2016-10-03T06:12:07.074Z,95.41
2016-10-03T06:12:47.586Z,96.27
2016-10-03T06:13:28.093Z,96.08
2016-10-03T06:14:08.664Z,96.08
2016-10-03T06:14:49.190Z,96.08
2016-10-03T06:15:29.711Z,96.17
2016-10-03T06:16:10.218Z,96.08
2016-10-03T06:16:50.718Z,96.08
2016-10-03T06:17:31.206Z,96.27
2016-10-03T06:18:11.695Z,95.51
2016-10-03T06:18:52.191Z,95.22
2016-10-03T06:19:32.703Z,95.61
2016-10-03T06:20:13.173Z,95.22
2016-10-03T06:20:53.683Z,95.61
2016-10-03T06:21:34.179Z,95.22
2016-10-03T06:22:14.708Z,96.27
2016-10-03T06:22:55.171Z,95.61
2016-10-03T06:23:35.680Z,95.41
2016-10-03T06:24:16.164Z,95.41
2016-10-03T06:24:56.790Z,95.41
2016-10-03T06:25:37.359Z,95.46
2016-10-03T06:26:17.865Z,95.41
2016-10-03T06:26:58.399Z,96.27
2016-10-03T06:27:38.902Z,95.98
2016-10-03T06:28:19.399Z,96.17
2016-10-03T06:28:59.912Z,95.7
2016-10-03T06:29:40.389Z,96.17
2016-10-03T06:30:20.970Z,96.17
2016-10-03T06:31:01.593Z,96.08
2016-10-03T06:31:42.179Z,96.17
2016-10-03T06:32:22.724Z,96.27
2016-10-03T06:33:03.274Z,96.56
2016-10-03T06:33:43.767Z,96.08
2016-10-03T06:34:24.296Z,97.13
2016-10-03T06:35:04.925Z,96.84
2016-10-03T06:35:45.512Z,97.03
2016-10-03T06:36:26.768Z,96.75
2016-10-03T06:37:07.323Z,96.94
2016-10-03T06:37:47.881Z,96.17
2016-10-03T06:38:28.411Z,97.13
2016-10-03T06:39:08.878Z,96.84
2016-10-03T06:39:49.384Z,97.13
2016-10-03T06:40:29.931Z,97.03
2016-10-03T06:41:10.439Z,96.75
2016-10-03T06:41:50.997Z,97.13
2016-10-03T06:42:32.642Z,96.75
2016-10-03T06:43:13.277Z,97.51
2016-10-03T06:43:54.817Z,97.32
2016-10-03T06:44:35.204Z,97.22
2016-10-03T06:45:15.874Z,97.51
2016-10-03T06:45:56.429Z,97.32
2016-10-03T06:46:36.887Z,97.32
2016-10-03T06:47:17.504Z,97.32
2016-10-03T06:47:58.025Z,97.99
2016-10-03T06:48:38.533Z,98.18
2016-10-03T06:49:19.046Z,97.99
2016-10-03T06:49:59.574Z,97.99
2016-10-03T06:50:40.080Z,98.08
2016-10-03T06:51:20.584Z,97.99
2016-10-03T06:52:01.089Z,97.71
2016-10-03T06:52:41.630Z,97.89
2016-10-03T06:53:22.167Z,97.8
2016-10-03T06:54:02.716Z,98.08
2016-10-03T06:54:43.289Z,97.71
2016-10-03T06:55:23.803Z,97.89
2016-10-03T06:56:04.401Z,97.51
2016-10-03T06:56:44.891Z,97.61
2016-10-03T06:57:25.478Z,98.27
2016-10-03T06:58:05.959Z,98.27
2016-10-03T06:58:46.457Z,98.47
2016-10-03T06:59:26.953Z,98.56
2016-10-03T07:00:07.519Z,98.37
2016-10-03T07:00:48.066Z,98.47
2016-10-03T07:01:28.549Z,98.37
2016-10-03T07:02:09.131Z,98.27
2016-10-03T07:02:49.682Z,98.27
2016-10-03T07:03:30.164Z,98.08
2016-10-03T07:04:10.708Z,98.66
2016-10-03T07:04:51.258Z,98.47
2016-10-03T07:05:31.813Z,98.47
2016-10-03T07:06:12.349Z,98.47
2016-10-03T07:06:52.839Z,97.99
2016-10-03T07:07:33.402Z,98.18
2016-10-03T07:08:13.908Z,98.18
2016-10-03T07:08:54.435Z,98.18
2016-10-03T07:09:35.160Z,98.56
2016-10-03T07:10:15.588Z,98.56
2016-10-03T07:10:56.233Z,98.18
2016-10-03T07:11:36.768Z,98.08
2016-10-03T07:12:17.298Z,98.08
2016-10-03T07:12:58.032Z,98.66
2016-10-03T07:13:38.717Z,98.56
2016-10-03T07:14:21.812Z,98.56
2016-10-03T07:15:02.363Z,98.27
2016-10-03T07:15:42.993Z,98.27
2016-10-03T07:16:23.577Z,98.56
2016-10-03T07:17:04.197Z,98.18
2016-10-03T07:17:44.747Z,98.56
2016-10-03T07:18:25.379Z,98.27
2016-10-03T07:19:05.976Z,98.56
2016-10-03T07:19:46.445Z,98.56
2016-10-03T07:20:27.989Z,98.27
2016-10-03T07:21:08.584Z,98.27
2016-10-03T07:21:49.172Z,98.56
2016-10-03T07:22:29.794Z,98.66
2016-10-03T07:23:10.175Z,98.66
2016-10-03T07:23:50.744Z,98.56
2016-10-03T07:24:31.254Z,98.08
2016-10-03T07:25:11.793Z,98.08
2016-10-03T07:25:52.376Z,98.18
2016-10-03T07:26:32.907Z,98.56
2016-10-03T07:27:13.474Z,98.56
2016-10-03T07:27:54.040Z,98.18
2016-10-03T07:28:34.933Z,98.18
2016-10-03T07:29:15.749Z,98.56
2016-10-03T07:29:56.329Z,98.56
2016-10-03T07:30:36.941Z,98.08
2016-10-03T07:31:17.554Z,98.37
2016-10-03T07:31:57.952Z,98.18
2016-10-03T07:32:38.470Z,98.37
2016-10-03T07:33:19.016Z,98.18
2016-10-03T07:33:59.539Z,98.18
2016-10-03T07:34:40.067Z,98.37
2016-10-03T07:35:20.654Z,98.08
2016-10-03T07:36:01.135Z,98.37
2016-10-03T07:36:41.693Z,97.99
2016-10-03T07:37:22.329Z,98.18
2016-10-03T07:38:02.752Z,97.71
2016-10-03T07:38:43.285Z,97.89
2016-10-03T07:39:23.831Z,97.89
2016-10-03T07:40:04.321Z,97.89
2016-10-03T07:40:44.857Z,97.99
2016-10-03T07:41:25.395Z,98.27
2016-10-03T07:42:06.000Z,97.99
2016-10-03T07:42:46.442Z,97.89
2016-10-03T07:43:26.960Z,97.89
2016-10-03T07:44:07.698Z,97.99
2016-10-03T07:44:48.179Z,97.89
2016-10-03T07:45:28.733Z,97.89
2016-10-03T07:46:09.255Z,97.89
2016-10-03T07:46:49.778Z,97.71
2016-10-03T07:47:30.486Z,97.71
2016-10-03T07:48:11.133Z,98.08
2016-10-03T07:48:51.635Z,97.71
2016-10-03T07:49:32.204Z,98.23
2016-10-03T07:50:12.942Z,97.66
2016-10-03T07:50:53.553Z,97.75
2016-10-03T07:51:34.108Z,97.94
2016-10-03T07:52:15.855Z,97.94
2016-10-03T07:52:56.398Z,97.85
2016-10-03T07:53:37.005Z,98.03
2016-10-03T07:54:17.581Z,97.94
2016-10-03T07:54:58.067Z,98.03
2016-10-03T07:55:38.637Z,98.03
2016-10-03T07:56:19.186Z,98.03
2016-10-03T07:56:59.750Z,97.94
2016-10-03T07:57:40.272Z,97.94
2016-10-03T07:58:20.882Z,97.56
2016-10-03T07:59:01.397Z,97.27
2016-10-03T07:59:41.931Z,97.56
2016-10-03T08:00:22.459Z,97.37
2016-10-03T08:01:03.134Z,97.27
2016-10-03T08:01:43.753Z,97.27
2016-10-03T08:02:24.254Z,97.56
2016-10-03T08:03:04.786Z,97.66
2016-10-03T08:03:45.320Z,97.66
2016-10-03T08:04:25.828Z,97.37
2016-10-03T08:05:06.326Z,97.08
2016-10-03T08:05:46.846Z,97.94
2016-10-03T08:06:27.347Z,97.66
2016-10-03T08:07:07.844Z,97.94
2016-10-03T08:07:48.341Z,98.03
2016-10-03T08:08:28.827Z,98.13
2016-10-03T08:09:09.347Z,97.66
2016-10-03T08:09:49.880Z,98.32
2016-10-03T08:10:30.399Z,98.23
2016-10-03T08:11:10.938Z,98.03
2016-10-03T08:11:51.395Z,98.32
2016-10-03T08:12:31.881Z,97.85
2016-10-03T08:13:12.365Z,97.56
2016-10-03T08:13:52.871Z,97.85
2016-10-03T08:14:33.361Z,97.94
2016-10-03T08:15:13.881Z,97.94
2016-10-03T08:15:54.392Z,98.13
2016-10-03T08:16:34.889Z,98.03
2016-10-03T08:17:15.405Z,97.56
2016-10-03T08:17:55.973Z,97.75
2016-10-03T08:18:37.618Z,97.75
2016-10-03T08:19:18.207Z,97.94
2016-10-03T08:19:58.704Z,97.94
2016-10-03T08:20:39.251Z,97.85
2016-10-03T08:21:19.753Z,97.75
2016-10-03T08:22:00.283Z,98.03
2016-10-03T08:22:40.777Z,97.94
2016-10-03T08:23:21.408Z,97.56
2016-10-03T08:24:01.919Z,97.47
2016-10-03T08:24:42.445Z,97.08
2016-10-03T08:25:22.949Z,97.94
2016-10-03T08:26:03.584Z,97.75
2016-10-03T08:26:44.288Z,98.03
2016-10-03T08:27:24.794Z,98.03
2016-10-03T08:28:05.295Z,98.03
2016-10-03T08:28:45.811Z,97.85
2016-10-03T08:29:26.358Z,97.75
2016-10-03T08:30:06.910Z,98.03
2016-10-03T08:30:47.432Z,97.85
2016-10-03T08:31:29.860Z,98.13
2016-10-03T08:32:10.594Z,98.03
2016-10-03T08:32:51.088Z,97.94
2016-10-03T08:34:12.357Z,98.03
2016-10-03T08:34:52.848Z,98.03
2016-10-03T08:35:33.335Z,98.23
2016-10-03T08:36:13.856Z,98.23
2016-10-03T08:36:54.374Z,97.94
2016-10-03T08:37:34.875Z,97.99
2016-10-03T08:38:15.405Z,97.94
2016-10-03T08:38:55.992Z,97.66
2016-10-03T08:39:36.760Z,97.75
2016-10-03T08:40:17.289Z,97.94
2016-10-03T08:40:57.780Z,97.23
2016-10-03T08:41:38.405Z,97.8
2016-10-03T08:42:19.333Z,98.03
2016-10-03T08:42:59.887Z,97.18
2016-10-03T08:43:40.420Z,97.61
2016-10-03T08:44:21.109Z,97.03
2016-10-03T08:45:01.607Z,96.8
2016-10-03T08:45:42.165Z,97.18
2016-10-03T08:46:22.965Z,96.94
2016-10-03T08:47:03.579Z,96.08
2016-10-03T08:47:44.255Z,96.84
2016-10-03T08:48:24.795Z,96.22
2016-10-03T08:49:05.307Z,96.08
2016-10-03T08:49:45.826Z,96.22
2016-10-03T08:50:26.362Z,95.89
2016-10-03T08:51:06.891Z,95.89